| time (UTC) | temp F | wind direction | speed knots | gust knots | rain 1hr in | rain 24hr in | rain mn in | humidity % | barometer mb |
| 20260507162530 | 55 | 69 | 1.7 | 5.2 | 0.18 | 1.13 | 1.13 | 89 | 1010.2 |
| 20260507162033 | 55 | 64 | 0.9 | 7.8 | 0.18 | 1.11 | 1.11 | 89 | 1010.1 |
| 20260507161550 | 55 | 96 | 2.6 | 7.8 | 0.20 | 1.10 | 1.10 | 89 | 1010.2 |
| 20260507161029 | 54 | 24 | 3.5 | 7.8 | 0.21 | 1.08 | 1.08 | 89 | 1010.3 |
| 20260507160529 | 54 | 69 | 1.7 | 12.2 | 0.23 | 1.05 | 1.05 | 88 | 1010.4 |
| 20260507160042 | 55 | 352 | 3.5 | 12.2 | 0.25 | 1.04 | 1.04 | 88 | 1010.4 |
| 20260507155530 | 55 | 30 | 5.2 | 14.8 | 0.25 | 1.02 | 1.02 | 88 | 1010.2 |
| 20260507155031 | 55 | 360 | 2.6 | 14.8 | 0.25 | 1.01 | 1.01 | 88 | 1010.2 |
| 20260507154546 | 55 | 15 | 4.3 | 14.8 | 0.25 | 1.00 | 1.00 | 89 | 1010.0 |
| 20260507154029 | 55 | 81 | 1.7 | 9.6 | 0.24 | 0.99 | 0.99 | 89 | 1009.8 |
| 20260507153531 | 55 | 43 | 3.5 | 9.6 | 0.23 | 0.98 | 0.98 | 89 | 1009.3 |
| 20260507153052 | 55 | 86 | 2.6 | 10.4 | 0.22 | 0.97 | 0.97 | 88 | 1009.9 |
| 20260507152529 | 54 | 31 | 2.6 | 10.4 | 0.20 | 0.95 | 0.95 | 88 | 1010.2 |
| 20260507152031 | 55 | 9 | 4.3 | 11.3 | 0.19 | 0.93 | 0.93 | 88 | 1010.3 |
| 20260507151542 | 55 | 54 | 5.2 | 11.3 | 0.16 | 0.90 | 0.90 | 88 | 1010.4 |
| 20260507151030 | 55 | 43 | 4.3 | 8.7 | 0.14 | 0.87 | 0.87 | 87 | 1010.7 |
| 20260507150531 | 55 | 321 | 3.5 | 7.8 | 0.10 | 0.83 | 0.83 | 87 | 1010.8 |
| 20260507150049 | 55 | 93 | 2.6 | 11.3 | 0.06 | 0.79 | 0.79 | 87 | 1010.9 |
| 20260507145532 | 56 | 23 | 2.6 | 11.3 | 0.04 | 0.77 | 0.77 | 86 | 1010.8 |
| 20260507145030 | 56 | 328 | 5.2 | 11.3 | 0.02 | 0.75 | 0.75 | 86 | 1010.5 |
| 20260507144540 | 56 | 48 | 5.2 | 10.4 | 0.02 | 0.75 | 0.75 | 85 | 1010.5 |
| 20260507144031 | 56 | 9 | 3.5 | 13.9 | 0.02 | 0.75 | 0.75 | 86 | 1010.2 |
| 20260507143531 | 56 | 25 | 5.2 | 13.9 | 0.02 | 0.75 | 0.75 | 85 | 1010.3 |
| 20260507143053 | 57 | 352 | 6.1 | 13.9 | 0.02 | 0.75 | 0.75 | 85 | 1010.2 |
| 20260507142534 | 57 | 53 | 3.5 | 11.3 | 0.02 | 0.75 | 0.75 | 85 | 1010.2 |
| 20260507142031 | 57 | 80 | 5.2 | 10.4 | 0.01 | 0.74 | 0.74 | 84 | 1010.1 |
| 20260507141545 | 57 | 50 | 4.3 | 13.0 | 0.01 | 0.74 | 0.74 | 85 | 1010.0 |
| 20260507141029 | 58 | 20 | 4.3 | 13.9 | 0.00 | 0.73 | 0.73 | 85 | 1010.0 |
| 20260507140533 | 58 | 11 | 6.1 | 13.9 | 0.00 | 0.73 | 0.73 | 86 | 1009.9 |
| 20260507140046 | 59 | 30 | 3.5 | 13.0 | 0.00 | 0.73 | 0.73 | 88 | 1009.8 |
| 20260507135532 | 59 | 33 | 3.5 | 13.9 | 0.01 | 0.73 | 0.73 | 87 | 1009.6 |
| 20260507135035 | 59 | 38 | 4.3 | 13.9 | 0.02 | 0.73 | 0.73 | 88 | 1009.8 |
| 20260507134542 | 59 | 352 | 3.5 | 12.2 | 0.04 | 0.73 | 0.73 | 88 | 1009.8 |
| 20260507134032 | 59 | 28 | 4.3 | 12.2 | 0.04 | 0.73 | 0.73 | 87 | 1009.7 |
| 20260507133531 | 59 | 94 | 3.5 | 15.6 | 0.04 | 0.73 | 0.73 | 89 | 1009.7 |
| 20260507133047 | 59 | 156 | 5.2 | 15.6 | 0.05 | 0.73 | 0.73 | 88 | 1009.6 |
| 20260507132532 | 59 | 121 | 4.3 | 13.0 | 0.05 | 0.73 | 0.73 | 89 | 1009.5 |
| 20260507132032 | 59 | 18 | 5.2 | 13.0 | 0.05 | 0.73 | 0.73 | 89 | 1009.6 |
| 20260507131547 | 60 | 19 | 4.3 | 13.0 | 0.06 | 0.73 | 0.73 | 89 | 1009.6 |
| 20260507131031 | 60 | 15 | 5.2 | 12.2 | 0.07 | 0.73 | 0.73 | 89 | 1009.5 |
| 20260507130533 | 60 | 110 | 3.5 | 10.4 | 0.08 | 0.73 | 0.73 | 90 | 1009.6 |
| 20260507130059 | 60 | 70 | 2.6 | 10.4 | 0.10 | 0.73 | 0.73 | 90 | 1009.5 |
| 20260507125535 | 60 | 59 | 4.3 | 12.2 | 0.09 | 0.72 | 0.72 | 89 | 1009.9 |
| 20260507125033 | 60 | 66 | 5.2 | 12.2 | 0.08 | 0.70 | 0.70 | 89 | 1009.8 |
| 20260507124607 | 60 | 22 | 4.3 | 12.2 | 0.07 | 0.69 | 0.69 | 89 | 1010.0 |
| 20260507124033 | 60 | 13 | 2.6 | 12.2 | 0.08 | 0.69 | 0.69 | 90 | 1009.9 |
| 20260507123532 | 59 | 65 | 4.3 | 10.4 | 0.08 | 0.69 | 0.69 | 89 | 1009.7 |
| 20260507123057 | 60 | 49 | 3.5 | 12.2 | 0.07 | 0.68 | 0.68 | 89 | 1009.7 |
| 20260507122532 | 60 | 28 | 4.3 | 12.2 | 0.08 | 0.68 | 0.68 | 89 | 1009.8 |
| 20260507122033 | 60 | 13 | 4.3 | 14.8 | 0.08 | 0.67 | 0.67 | 89 | 1009.7 |
| 20260507121555 | 60 | 19 | 5.2 | 14.8 | 0.09 | 0.67 | 0.67 | 89 | 1009.7 |
| 20260507121033 | 60 | 82 | 4.3 | 13.0 | 0.09 | 0.66 | 0.66 | 89 | 1009.7 |
| 20260507120540 | 60 | 231 | 3.5 | 10.4 | 0.08 | 0.65 | 0.65 | 88 | 1009.9 |
| 20260507120042 | 60 | 50 | 4.3 | 10.4 | 0.07 | 0.63 | 0.63 | 88 | 1009.7 |
| 20260507115531 | 61 | 23 | 1.7 | 10.4 | 0.08 | 0.63 | 0.63 | 88 | 1010.2 |
| 20260507115034 | 61 | 322 | 1.7 | 12.2 | 0.08 | 0.62 | 0.62 | 88 | 1010.0 |
| 20260507114547 | 61 | 56 | 3.5 | 13.0 | 0.10 | 0.62 | 0.62 | 88 | 1010.0 |
| 20260507114032 | 61 | 29 | 5.2 | 13.0 | 0.10 | 0.61 | 0.61 | 87 | 1009.7 |
| 20260507113537 | 63 | 46 | 4.3 | 12.2 | 0.11 | 0.61 | 0.61 | 86 | 1009.6 |
| 20260507113045 | 65 | 254 | 1.7 | 7.8 | 0.12 | 0.60 | 0.60 | 86 | 1009.7 |
| 20260507112535 | 67 | 55 | 0.0 | 2.6 | 0.13 | 0.60 | 0.60 | 87 | 1009.1 |
| 20260507112033 | 67 | 0 | 0.9 | 4.3 | 0.15 | 0.58 | 0.58 | 88 | 1009.0 |
| 20260507111544 | 67 | 223 | 1.7 | 4.3 | 0.20 | 0.58 | 0.58 | 88 | 1009.2 |
| 20260507111031 | 67 | 211 | 1.7 | 4.3 | 0.25 | 0.57 | 0.57 | 88 | 1009.1 |
| 20260507110533 | 67 | 241 | 0.9 | 3.5 | 0.30 | 0.56 | 0.56 | 89 | 1009.0 |
| 20260507110046 | 67 | 0 | 0.9 | 3.5 | 0.39 | 0.56 | 0.56 | 89 | 1008.9 |
| 20260507105533 | 67 | 245 | 1.7 | 6.1 | 0.46 | 0.55 | 0.55 | 89 | 1009.0 |
| 20260507105031 | 66 | 225 | 0.9 | 6.1 | 0.49 | 0.54 | 0.54 | 89 | 1008.9 |
| 20260507104541 | 66 | 242 | 1.7 | 8.7 | 0.47 | 0.52 | 0.52 | 89 | 1008.8 |
| 20260507104031 | 67 | 235 | 2.6 | 8.7 | 0.46 | 0.51 | 0.51 | 89 | 1008.8 |
| 20260507103533 | 67 | 248 | 2.6 | 7.8 | 0.45 | 0.50 | 0.50 | 89 | 1008.8 |
| 20260507103040 | 66 | 261 | 2.6 | 7.8 | 0.43 | 0.48 | 0.48 | 89 | 1008.7 |
| 20260507102534 | 66 | 235 | 3.5 | 7.8 | 0.41 | 0.46 | 0.46 | 89 | 1008.7 |
| 20260507102033 | 66 | 230 | 3.5 | 7.8 | 0.39 | 0.44 | 0.44 | 88 | 1008.7 |
| 20260507101545 | 67 | 330 | 0.9 | 4.3 | 0.32 | 0.37 | 0.37 | 88 | 1008.6 |
| 20260507101032 | 67 | 331 | 2.6 | 4.3 | 0.26 | 0.31 | 0.31 | 87 | 1008.5 |
| 20260507100530 | 67 | 283 | 0.9 | 3.5 | 0.22 | 0.26 | 0.26 | 87 | 1008.6 |
| 20260507100056 | 67 | 258 | 0.9 | 4.3 | 0.15 | 0.16 | 0.16 | 85 | 1008.6 |
| 20260507095532 | 68 | 229 | 1.7 | 5.2 | 0.06 | 0.07 | 0.07 | 85 | 1008.6 |
| 20260507095032 | 68 | 215 | 1.7 | 5.2 | 0.04 | 0.05 | 0.05 | 82 | 1008.2 |
| 20260507094543 | 69 | 224 | 1.7 | 4.3 | 0.04 | 0.05 | 0.05 | 83 | 1008.0 |
| 20260507094033 | 69 | 224 | 1.7 | 4.3 | 0.04 | 0.05 | 0.05 | 84 | 1007.7 |
| 20260507093532 | 69 | 215 | 1.7 | 4.3 | 0.05 | 0.05 | 0.05 | 84 | 1007.7 |
| 20260507093042 | 69 | 223 | 0.9 | 5.2 | 0.05 | 0.05 | 0.05 | 83 | 1007.6 |
| 20260507092535 | 69 | 224 | 2.6 | 5.2 | 0.05 | 0.05 | 0.05 | 83 | 1007.6 |
| 20260507092033 | 69 | 241 | 2.6 | 7.0 | 0.05 | 0.05 | 0.05 | 83 | 1007.6 |
| 20260507091541 | 69 | 212 | 2.6 | 10.4 | 0.05 | 0.05 | 0.05 | 83 | 1007.8 |
| 20260507091032 | 68 | 245 | 5.2 | 11.3 | 0.05 | 0.05 | 0.05 | 83 | 1007.9 |
| 20260507090532 | 68 | 240 | 7.8 | 13.0 | 0.04 | 0.04 | 0.04 | 82 | 1007.6 |
| 20260507090049 | 69 | 225 | 7.0 | 13.0 | 0.01 | 0.01 | 0.01 | 80 | 1008.0 |
| 20260507085533 | 69 | 232 | 6.1 | 9.6 | 0.01 | 0.01 | 0.01 | 80 | 1008.0 |
| 20260507085034 | 69 | 246 | 5.2 | 9.6 | 0.01 | 0.01 | 0.01 | 80 | 1007.9 |
| 20260507084550 | 69 | 226 | 3.5 | 13.0 | 0.01 | 0.01 | 0.01 | 80 | 1007.9 |
| 20260507084033 | 69 | 248 | 6.1 | 13.0 | 0.01 | 0.01 | 0.01 | 79 | 1008.0 |
| 20260507083533 | 69 | 226 | 3.5 | 9.6 | 0.00 | 0.00 | 0.00 | 78 | 1008.0 |
| 20260507083103 | 70 | 241 | 4.3 | 9.6 | 0.00 | 0.00 | 0.00 | 79 | 1008.2 |
| 20260507082533 | 69 | 261 | 5.2 | 9.6 | 0.00 | 0.00 | 0.00 | 79 | 1008.1 |
| 20260507082032 | 69 | 209 | 3.5 | 8.7 | 0.00 | 0.00 | 0.00 | 79 | 1008.2 |
| 20260507081553 | 69 | 222 | 3.5 | 8.7 | 0.00 | 0.00 | 0.00 | 78 | 1008.2 |
| 20260507081033 | 70 | 227 | 3.5 | 8.7 | 0.00 | 0.00 | 0.00 | 78 | 1008.3 |
| 20260507080532 | 70 | 267 | 2.6 | 7.0 | 0.00 | 0.00 | 0.00 | 78 | 1008.5 |
| 20260507080050 | 70 | 196 | 1.7 | 9.6 | 0.00 | 0.00 | 0.00 | 79 | 1008.6 |
| 20260507075535 | 69 | 205 | 2.6 | 9.6 | 0.00 | 0.00 | 0.00 | 79 | 1008.7 |
| 20260507075033 | 69 | 206 | 2.6 | 8.7 | 0.00 | 0.00 | 0.00 | 79 | 1008.6 |
| 20260507074542 | 69 | 215 | 4.3 | 8.7 | 0.00 | 0.00 | 0.00 | 80 | 1008.9 |
| 20260507074032 | 69 | 238 | 4.3 | 7.8 | 0.00 | 0.00 | 0.00 | 79 | 1008.9 |
| 20260507073532 | 69 | 223 | 2.6 | 5.2 | 0.00 | 0.00 | 0.00 | 79 | 1008.7 |
| 20260507073052 | 70 | 243 | 1.7 | 7.8 | 0.00 | 0.00 | 0.00 | 78 | 1008.8 |
| 20260507072536 | 70 | 235 | 3.5 | 7.8 | 0.00 | 0.00 | 0.00 | 79 | 1008.7 |
| 20260507072031 | 69 | 258 | 4.3 | 8.7 | 0.00 | 0.00 | 0.00 | 80 | 1008.7 |
| 20260507071541 | 69 | 232 | 3.5 | 8.7 | 0.00 | 0.00 | 0.00 | 79 | 1008.7 |
| 20260507071032 | 69 | 224 | 5.2 | 8.7 | 0.00 | 0.00 | 0.00 | 79 | 1008.7 |
| 20260507070531 | 69 | 233 | 4.3 | 8.7 | 0.00 | 0.00 | 0.00 | 78 | 1008.6 |
| 20260507070046 | 69 | 210 | 3.5 | 8.7 | 0.00 | 0.00 | 0.00 | 78 | 1008.6 |
| 20260507065533 | 70 | 226 | 3.5 | 9.6 | 0.00 | 0.00 | 0.00 | 78 | 1008.6 |
| 20260507065033 | 69 | 275 | 4.3 | 9.6 | 0.00 | 0.00 | 0.00 | 78 | 1008.4 |
| 20260507064543 | 70 | 194 | 3.5 | 8.7 | 0.00 | 0.00 | 0.00 | 77 | 1008.2 |
| 20260507064031 | 70 | 264 | 4.3 | 8.7 | 0.00 | 0.00 | 0.00 | 77 | 1008.1 |
| 20260507063534 | 70 | 244 | 2.6 | 6.1 | 0.00 | 0.00 | 0.00 | 77 | 1008.1 |
| 20260507063049 | 70 | 232 | 0.9 | 6.1 | 0.00 | 0.00 | 0.00 | 78 | 1008.0 |
| 20260507062532 | 70 | 215 | 1.7 | 6.1 | 0.00 | 0.00 | 0.00 | 77 | 1007.9 |
| 20260507062033 | 70 | 187 | 1.7 | 7.0 | 0.00 | 0.00 | 0.00 | 77 | 1008.2 |
| 20260507061543 | 70 | 218 | 1.7 | 7.0 | 0.00 | 0.00 | 0.00 | 77 | 1008.6 |
| 20260507061033 | 70 | 209 | 2.6 | 7.0 | 0.00 | 0.00 | 0.00 | 77 | 1008.9 |
| 20260507060532 | 70 | 236 | 3.5 | 7.0 | 0.00 | 0.00 | 0.00 | 77 | 1009.3 |
| 20260507060043 | 70 | 223 | 2.6 | 6.1 | 0.00 | 0.00 | 0.00 | 77 | 1009.5 |
| 20260507055533 | 70 | 226 | 2.6 | 6.1 | 0.00 | 0.00 | 0.00 | 77 | 1009.6 |
| 20260507055033 | 70 | 255 | 1.7 | 6.1 | 0.00 | 0.00 | 0.00 | 76 | 1009.6 |
| 20260507054543 | 70 | 211 | 2.6 | 5.2 | 0.00 | 0.00 | 0.00 | 75 | 1009.7 |
| 20260507054036 | 71 | 227 | 2.6 | 6.1 | 0.00 | 0.00 | 0.00 | 75 | 1009.7 |
| 20260507053532 | 70 | 230 | 2.6 | 7.0 | 0.00 | 0.00 | 0.00 | 75 | 1009.8 |
| 20260507053040 | 70 | 254 | 3.5 | 7.0 | 0.00 | 0.00 | 0.00 | 74 | 1009.8 |
| 20260507052533 | 71 | 240 | 2.6 | 5.2 | 0.00 | 0.00 | 0.00 | 72 | 1009.9 |
| 20260507052031 | 72 | 237 | 2.6 | 6.1 | 0.00 | 0.00 | 0.00 | 72 | 1010.0 |
| 20260507051544 | 72 | 221 | 3.5 | 6.1 | 0.00 | 0.00 | 0.00 | 72 | 1009.9 |
| 20260507051031 | 71 | 220 | 3.5 | 7.8 | 0.00 | 0.00 | 0.00 | 72 | 1009.9 |
| 20260507050535 | 72 | 244 | 3.5 | 7.8 | 0.00 | 0.00 | 0.00 | 71 | 1009.9 |
| 20260507050042 | 72 | 232 | 3.5 | 7.8 | 0.00 | 0.00 | 0.00 | 70 | 1009.8 |
| 20260507045534 | 73 | 232 | 4.3 | 7.8 | 0.00 | 0.00 | 0.00 | 69 | 1009.6 |
| 20260507045034 | 73 | 236 | 2.6 | 5.2 | 0.00 | 0.00 | 0.00 | 68 | 1009.5 |
| 20260507044542 | 73 | 206 | 1.7 | 5.2 | 0.00 | 0.00 | 0.00 | 67 | 1009.5 |
| 20260507044032 | 72 | 197 | 2.6 | 4.3 | 0.00 | 0.00 | 0.00 | 67 | 1009.5 |
| 20260507043531 | 73 | 221 | 1.7 | 5.2 | 0.00 | 0.00 | 0.00 | 67 | 1009.4 |
| 20260507043041 | 73 | 215 | 1.7 | 8.7 | 0.00 | 0.00 | 0.00 | 66 | 1009.6 |
| 20260507042533 | 73 | 213 | 3.5 | 8.7 | 0.00 | 0.00 | 0.00 | 67 | 1009.7 |
| 20260507042034 | 73 | 257 | 2.6 | 7.8 | 0.00 | 0.00 | 0.00 | 67 | 1009.7 |
| 20260507041548 | 73 | 226 | 3.5 | 7.8 | 0.00 | 0.00 | 0.00 | 67 | 1009.7 |
| 20260507041033 | 73 | 224 | 3.5 | 7.0 | 0.00 | 0.00 | 0.00 | 67 | 1009.6 |
| 20260507040533 | 73 | 178 | 2.6 | 7.0 | 0.00 | 0.00 | 0.00 | 67 | 1009.6 |
| 20260507040040 | 73 | 200 | 1.7 | 5.2 | 0.00 | 0.00 | 0.00 | 67 | 1009.5 |
| 20260507035532 | 72 | 231 | 2.6 | 4.3 | 0.00 | 0.00 | 0.00 | 68 | 1009.6 |
| 20260507035036 | 72 | 225 | 1.7 | 4.3 | 0.00 | 0.00 | 0.00 | 68 | 1009.5 |
| 20260507034546 | 72 | 243 | 1.7 | 5.2 | 0.00 | 0.00 | 0.00 | 68 | 1009.3 |
| 20260507034034 | 73 | 227 | 2.6 | 5.2 | 0.00 | 0.00 | 0.00 | 67 | 1009.0 |
| 20260507033532 | 73 | 217 | 1.7 | 4.3 | 0.00 | 0.00 | 0.00 | 67 | 1009.0 |
| 20260507033042 | 73 | 217 | 0.9 | 4.3 | 0.00 | 0.00 | 0.00 | 67 | 1009.1 |
| 20260507032533 | 73 | 228 | 0.9 | 5.2 | 0.00 | 0.00 | 0.00 | 67 | 1009.2 |
| 20260507032032 | 72 | 228 | 2.6 | 5.2 | 0.00 | 0.00 | 0.00 | 67 | 1009.1 |
| 20260507031541 | 73 | 227 | 0.9 | 4.3 | 0.00 | 0.00 | 0.00 | 65 | 1009.1 |
| 20260507031037 | 74 | 0 | 1.7 | 4.3 | 0.00 | 0.00 | 0.00 | 64 | 1009.1 |
| 20260507030531 | 74 | 238 | 2.6 | 4.3 | 0.00 | 0.00 | 0.00 | 65 | 1009.5 |
| 20260507030041 | 73 | 240 | 1.7 | 5.2 | 0.00 | 0.00 | 0.00 | 65 | 1009.6 |
| 20260507025533 | 74 | 220 | 1.7 | 5.2 | 0.00 | 0.00 | 0.00 | 65 | 1009.8 |
| 20260507025035 | 74 | 223 | 0.9 | 6.1 | 0.00 | 0.00 | 0.00 | 63 | 1009.8 |
| 20260507024554 | 74 | 194 | 1.7 | 6.1 | 0.00 | 0.00 | 0.00 | 64 | 1009.8 |
| 20260507024031 | 74 | 296 | 2.6 | 6.1 | 0.00 | 0.00 | 0.00 | 64 | 1009.8 |
| 20260507023541 | 74 | 226 | 1.7 | 6.1 | 0.00 | 0.00 | 0.00 | 65 | 1010.0 |
| 20260507023044 | 73 | 223 | 1.7 | 4.3 | 0.00 | 0.00 | 0.00 | 65 | 1010.0 |
| 20260507022532 | 73 | 221 | 1.7 | 3.5 | 0.00 | 0.00 | 0.00 | 65 | 1009.9 |
| 20260507022032 | 74 | 202 | 0.9 | 4.3 | 0.00 | 0.00 | 0.00 | 64 | 1009.8 |
| 20260507021545 | 74 | 213 | 0.9 | 6.1 | 0.00 | 0.00 | 0.00 | 64 | 1009.7 |
| 20260507021033 | 73 | 0 | 1.7 | 6.1 | 0.00 | 0.00 | 0.00 | 65 | 1009.8 |
| 20260507020533 | 73 | 150 | 0.0 | 2.6 | 0.00 | 0.00 | 0.00 | 65 | 1009.9 |
| 20260507020059 | 74 | 168 | 0.0 | 3.5 | 0.00 | 0.00 | 0.00 | 63 | 1009.7 |
| 20260507015531 | 75 | 213 | 0.9 | 5.2 | 0.00 | 0.00 | 0.00 | 62 | 1009.8 |
| 20260507015033 | 75 | 184 | 1.7 | 5.2 | 0.00 | 0.00 | 0.00 | 63 | 1010.0 |
| 20260507014557 | 74 | 216 | 2.6 | 5.2 | 0.00 | 0.00 | 0.00 | 63 | 1010.1 |
| 20260507014032 | 74 | 212 | 1.7 | 4.3 | 0.00 | 0.00 | 0.00 | 63 | 1010.0 |
| 20260507013532 | 74 | 225 | 1.7 | 4.3 | 0.00 | 0.00 | 0.00 | 61 | 1009.9 |
| 20260507013046 | 75 | 236 | 1.7 | 5.2 | 0.00 | 0.00 | 0.00 | 61 | 1009.8 |
| 20260507012535 | 75 | 225 | 0.9 | 5.2 | 0.00 | 0.00 | 0.00 | 62 | 1009.6 |
| 20260507012032 | 74 | 257 | 1.7 | 5.2 | 0.00 | 0.00 | 0.00 | 63 | 1009.9 |
| 20260507011540 | 74 | 232 | 2.6 | 4.3 | 0.00 | 0.00 | 0.00 | 63 | 1009.8 |
| 20260507011032 | 74 | 232 | 1.7 | 4.3 | 0.00 | 0.00 | 0.00 | 62 | 1009.8 |
| 20260507010533 | 75 | 254 | 1.7 | 4.3 | 0.00 | 0.00 | 0.00 | 61 | 1009.9 |
| 20260507010044 | 75 | 198 | 1.7 | 6.1 | 0.00 | 0.00 | 0.00 | 61 | 1009.9 |
| 20260507005534 | 75 | 234 | 2.6 | 6.1 | 0.00 | 0.00 | 0.00 | 62 | 1009.8 |
| 20260507005033 | 75 | 219 | 2.6 | 5.2 | 0.00 | 0.00 | 0.00 | 61 | 1009.9 |
| 20260507004546 | 75 | 255 | 3.5 | 6.1 | 0.00 | 0.00 | 0.00 | 60 | 1009.9 |
| 20260507004033 | 76 | 241 | 3.5 | 6.1 | 0.00 | 0.00 | 0.00 | 59 | 1009.9 |
| 20260507003533 | 76 | 267 | 2.6 | 5.2 | 0.00 | 0.00 | 0.00 | 59 | 1009.8 |
| 20260507003047 | 76 | 233 | 2.6 | 5.2 | 0.00 | 0.00 | 0.00 | 60 | 1009.7 |
| 20260507002533 | 76 | 210 | 2.6 | 5.2 | 0.00 | 0.00 | 0.00 | 59 | 1009.6 |
| 20260507002031 | 76 | 225 | 1.7 | 4.3 | 0.00 | 0.00 | 0.00 | 59 | 1009.5 |
| 20260507001545 | 76 | 227 | 1.7 | 4.3 | 0.00 | 0.00 | 0.00 | 58 | 1009.5 |
| 20260507001033 | 77 | 243 | 2.6 | 4.3 | 0.00 | 0.00 | 0.00 | 58 | 1009.5 |
| 20260507000533 | 77 | 256 | 2.6 | 4.3 | 0.00 | 0.00 | 0.00 | 58 | 1009.3 |
| 20260507000042 | 76 | 220 | 2.6 | 6.1 | 0.00 | 0.00 | 0.00 | 58 | 1009.2 |
| 20260506235534 | 76 | 225 | 2.6 | 6.1 | 0.00 | 0.00 | 0.00 | 59 | 1009.2 |
| 20260506235035 | 76 | 236 | 3.5 | 7.0 | 0.00 | 0.00 | 0.00 | 58 | 1009.3 |
| 20260506234545 | 77 | 221 | 3.5 | 7.0 | 0.00 | 0.00 | 0.00 | 57 | 1009.2 |
| 20260506234030 | 77 | 251 | 2.6 | 7.0 | 0.00 | 0.00 | 0.00 | 56 | 1009.2 |
| 20260506233533 | 77 | 235 | 3.5 | 8.7 | 0.00 | 0.00 | 0.00 | 56 | 1009.0 |
| 20260506233045 | 77 | 217 | 3.5 | 8.7 | 0.00 | 0.00 | 0.00 | 56 | 1009.0 |
| 20260506232532 | 78 | 243 | 3.5 | 8.7 | 0.00 | 0.00 | 0.00 | 55 | 1009.0 |
| 20260506232031 | 78 | 236 | 4.3 | 8.7 | 0.00 | 0.00 | 0.00 | 54 | 1009.0 |
| 20260506231551 | 78 | 232 | 4.3 | 8.7 | 0.00 | 0.00 | 0.00 | 55 | 1009.0 |
| 20260506231033 | 78 | 221 | 4.3 | 8.7 | 0.00 | 0.00 | 0.00 | 55 | 1008.9 |
| 20260506230532 | 78 | 247 | 3.5 | 8.7 | 0.00 | 0.00 | 0.00 | 55 | 1008.9 |
| 20260506230053 | 78 | 243 | 4.3 | 8.7 | 0.00 | 0.00 | 0.00 | 55 | 1008.8 |
| 20260506225535 | 78 | 229 | 3.5 | 7.8 | 0.00 | 0.00 | 0.00 | 55 | 1008.7 |
| 20260506225033 | 78 | 229 | 4.3 | 7.0 | 0.00 | 0.00 | 0.00 | 54 | 1008.6 |
| 20260506224549 | 79 | 220 | 4.3 | 13.9 | 0.00 | 0.00 | 0.00 | 53 | 1008.7 |
| 20260506224034 | 78 | 249 | 4.3 | 13.0 | 0.00 | 0.00 | 0.00 | 54 | 1008.8 |
| 20260506223534 | 78 | 238 | 5.2 | 12.2 | 0.00 | 0.00 | 0.00 | 53 | 1008.9 |
| 20260506223052 | 79 | 163 | 4.3 | 12.2 | 0.00 | 0.00 | 0.00 | 53 | 1008.9 |
| 20260506222532 | 79 | 222 | 4.3 | 11.3 | 0.00 | 0.00 | 0.00 | 53 | 1008.9 |
| 20260506222032 | 79 | 167 | 5.2 | 13.0 | 0.00 | 0.00 | 0.00 | 53 | 1008.9 |
| 20260506221546 | 78 | 233 | 3.5 | 13.0 | 0.00 | 0.00 | 0.00 | 54 | 1008.9 |
| 20260506221036 | 78 | 244 | 4.3 | 12.2 | 0.00 | 0.00 | 0.00 | 54 | 1008.8 |
| 20260506220537 | 78 | 242 | 7.0 | 12.2 | 0.00 | 0.00 | 0.00 | 54 | 1008.8 |
| 20260506220045 | 78 | 213 | 6.1 | 11.3 | 0.00 | 0.00 | 0.00 | 54 | 1008.7 |
| 20260506215536 | 78 | 235 | 5.2 | 12.2 | 0.00 | 0.00 | 0.00 | 54 | 1008.6 |
| 20260506215033 | 78 | 237 | 5.2 | 12.2 | 0.00 | 0.00 | 0.00 | 53 | 1008.4 |
| 20260506214544 | 78 | 178 | 5.2 | 11.3 | 0.00 | 0.00 | 0.00 | 54 | 1008.3 |
| 20260506214033 | 78 | 261 | 6.1 | 11.3 | 0.00 | 0.00 | 0.00 | 54 | 1008.6 |
| 20260506213534 | 79 | 242 | 4.3 | 13.9 | 0.00 | 0.00 | 0.00 | 54 | 1008.7 |
| 20260506213102 | 79 | 195 | 7.0 | 16.5 | 0.00 | 0.00 | 0.00 | 53 | 1008.5 |
| 20260506212533 | 79 | 225 | 6.1 | 16.5 | 0.00 | 0.00 | 0.00 | 53 | 1008.6 |
| 20260506212035 | 79 | 234 | 6.1 | 16.5 | 0.00 | 0.00 | 0.00 | 53 | 1008.7 |
| 20260506211554 | 79 | 180 | 4.3 | 16.5 | 0.00 | 0.00 | 0.00 | 53 | 1008.3 |
| 20260506211032 | 78 | 220 | 4.3 | 13.9 | 0.00 | 0.00 | 0.00 | 54 | 1008.1 |
| 20260506210533 | 78 | 225 | 5.2 | 13.9 | 0.00 | 0.00 | 0.00 | 54 | 1008.2 |
| 20260506210041 | 78 | 203 | 4.3 | 10.4 | 0.00 | 0.00 | 0.00 | 54 | 1008.3 |
| 20260506205532 | 78 | 242 | 3.5 | 13.0 | 0.00 | 0.00 | 0.00 | 54 | 1008.6 |
| 20260506205033 | 78 | 204 | 4.3 | 13.0 | 0.00 | 0.00 | 0.00 | 54 | 1008.6 |
| 20260506204550 | 78 | 180 | 6.1 | 13.0 | 0.00 | 0.00 | 0.00 | 54 | 1008.7 |
| 20260506204032 | 79 | 237 | 4.3 | 15.6 | 0.00 | 0.00 | 0.00 | 53 | 1008.7 |
| 20260506203532 | 79 | 238 | 7.0 | 19.1 | 0.00 | 0.00 | 0.00 | 52 | 1008.8 |
| 20260506203047 | 78 | 224 | 7.8 | 19.1 | 0.00 | 0.00 | 0.00 | 52 | 1009.0 |
| 20260506202536 | 78 | 261 | 10.4 | 19.1 | 0.00 | 0.00 | 0.00 | 51 | 1009.2 |
| 20260506202035 | 78 | 246 | 7.0 | 18.2 | 0.00 | 0.00 | 0.00 | 53 | 1009.2 |
| 20260506201554 | 78 | 225 | 9.6 | 18.2 | 0.00 | 0.00 | 0.00 | 53 | 1009.4 |
| 20260506201034 | 79 | 257 | 7.8 | 14.8 | 0.00 | 0.00 | 0.00 | 53 | 1009.4 |
| 20260506200532 | 78 | 183 | 8.7 | 18.2 | 0.00 | 0.00 | 0.00 | 56 | 1009.6 |
| 20260506200043 | 78 | 186 | 8.7 | 18.2 | 0.00 | 0.00 | 0.00 | 57 | 1009.7 |
| 20260506195533 | 79 | 218 | 5.2 | 12.2 | 0.00 | 0.00 | 0.00 | 57 | 1009.7 |
| 20260506195033 | 79 | 196 | 4.3 | 13.9 | 0.00 | 0.00 | 0.00 | 58 | 1009.9 |
| 20260506194555 | 79 | 233 | 3.5 | 13.9 | 0.00 | 0.00 | 0.00 | 58 | 1010.0 |
| 20260506194032 | 78 | 202 | 6.1 | 14.8 | 0.00 | 0.00 | 0.00 | 58 | 1010.2 |
| 20260506193531 | 78 | 126 | 6.1 | 14.8 | 0.00 | 0.00 | 0.00 | 58 | 1010.3 |
| 20260506193041 | 78 | 234 | 5.2 | 13.0 | 0.00 | 0.00 | 0.00 | 58 | 1010.3 |
| 20260506192533 | 78 | 238 | 7.0 | 13.0 | 0.00 | 0.00 | 0.00 | 57 | 1010.4 |
| 20260506192033 | 79 | 229 | 4.3 | 12.2 | 0.00 | 0.00 | 0.00 | 57 | 1010.5 |
| 20260506191546 | 79 | 229 | 7.0 | 12.2 | 0.00 | 0.00 | 0.00 | 57 | 1010.5 |
| 20260506191034 | 78 | 233 | 4.3 | 10.4 | 0.00 | 0.00 | 0.00 | 58 | 1010.5 |
| 20260506190533 | 78 | 238 | 5.2 | 13.0 | 0.00 | 0.00 | 0.00 | 59 | 1010.6 |
| 20260506190044 | 77 | 243 | 7.0 | 13.0 | 0.00 | 0.00 | 0.00 | 59 | 1010.6 |
| 20260506185532 | 77 | 215 | 7.8 | 18.2 | 0.00 | 0.00 | 0.00 | 59 | 1010.5 |
| 20260506185036 | 77 | 235 | 5.2 | 18.2 | 0.00 | 0.00 | 0.00 | 59 | 1010.6 |
| 20260506184546 | 76 | 190 | 8.7 | 18.2 | 0.00 | 0.00 | 0.00 | 60 | 1010.7 |
| 20260506184034 | 77 | 288 | 3.5 | 16.5 | 0.00 | 0.00 | 0.00 | 59 | 1010.8 |
| 20260506183531 | 77 | 211 | 5.2 | 16.5 | 0.00 | 0.00 | 0.00 | 59 | 1010.8 |
| 20260506183056 | 77 | 187 | 4.3 | 13.0 | 0.00 | 0.00 | 0.00 | 58 | 1010.6 |
| 20260506182532 | 77 | 328 | 5.2 | 16.5 | 0.00 | 0.00 | 0.00 | 59 | 1010.8 |
| 20260506182032 | 77 | 227 | 9.6 | 16.5 | 0.00 | 0.00 | 0.00 | 59 | 1010.8 |
| 20260506181540 | 76 | 255 | 7.8 | 14.8 | 0.00 | 0.00 | 0.00 | 59 | 1010.9 |
| 20260506181033 | 76 | 240 | 6.1 | 15.6 | 0.00 | 0.00 | 0.00 | 59 | 1010.9 |
| 20260506180535 | 76 | 231 | 7.0 | 15.6 | 0.00 | 0.00 | 0.00 | 59 | 1011.1 |
| 20260506180050 | 76 | 149 | 5.2 | 14.8 | 0.00 | 0.00 | 0.00 | 59 | 1011.2 |
| 20260506175533 | 76 | 241 | 6.1 | 18.2 | 0.00 | 0.00 | 0.00 | 60 | 1011.3 |
| 20260506175032 | 76 | 214 | 7.8 | 18.2 | 0.00 | 0.00 | 0.00 | 59 | 1011.3 |
| 20260506174546 | 76 | 259 | 7.0 | 13.9 | 0.00 | 0.00 | 0.00 | 59 | 1011.5 |
| 20260506174032 | 77 | 236 | 4.3 | 13.9 | 0.00 | 0.00 | 0.00 | 58 | 1011.8 |
| 20260506173532 | 76 | 239 | 3.5 | 13.9 | 0.00 | 0.00 | 0.00 | 59 | 1011.8 |
| 20260506173050 | 76 | 205 | 5.2 | 13.0 | 0.00 | 0.00 | 0.00 | 60 | 1011.8 |
| 20260506172532 | 75 | 244 | 7.8 | 13.9 | 0.00 | 0.00 | 0.00 | 61 | 1011.8 |
| 20260506172031 | 75 | 138 | 5.2 | 15.6 | 0.00 | 0.00 | 0.00 | 61 | 1011.8 |
| 20260506171543 | 75 | 200 | 7.0 | 15.6 | 0.00 | 0.00 | 0.00 | 61 | 1012.0 |
| 20260506171033 | 75 | 240 | 7.0 | 14.8 | 0.00 | 0.00 | 0.00 | 62 | 1012.1 |
| 20260506170531 | 74 | 257 | 7.0 | 14.8 | 0.00 | 0.00 | 0.00 | 62 | 1012.1 |
| 20260506165532 | 74 | 191 | 5.2 | 13.9 | 0.00 | 0.00 | 0.00 | 62 | 1012.1 |
| 20260506165032 | 74 | 219 | 6.1 | 13.9 | 0.00 | 0.00 | 0.00 | 62 | 1012.0 |
| 20260506164541 | 74 | 211 | 5.2 | 12.2 | 0.00 | 0.00 | 0.00 | 62 | 1012.2 |
| 20260506164035 | 74 | 317 | 4.3 | 12.2 | 0.00 | 0.00 | 0.00 | 64 | 1012.2 |
| 20260506163533 | 73 | 180 | 3.5 | 10.4 | 0.00 | 0.00 | 0.00 | 64 | 1012.1 |
| 20260506163054 | 73 | 189 | 2.6 | 10.4 | 0.00 | 0.00 | 0.00 | 65 | 1012.2 |